Check out our new BloomSky Weather System.

Active alerts


No alerts


Thunder radar  blitzortung!


Rain radar more information rain snow radar


Visit our other weather sites:

Template documentation
and downloads

And another site



Weather Underground History page Text

Daily Summary for January 18, 2018 Units:  Both    English   Metric
« Previous Day
Next Day »
Daily Weekly Monthly Yearly Custom
  High: Low: Average:
Temperature: TemperatureF °F /  -17.8 °C 20.8 °F /  -6.2 °C 31.4 °F /  -0.3 °C
Dew Point: DewpointF °F /  -17.8 °C 16.7 °F /  -8.5 °C 19.3 °F /  -7.1 °C
Humidity: Humidity % 41 % 62 %
Wind Speed: WindSpeedMPH mph /  0 km/h - 0.6 mph /  1 km/h
Wind Gust: WindSpeedGustMPH mph /  0 km/h - -
Wind:- - SE
Pressure: PressureIn in /  0 hPa 30.40 in /  1029.3 hPa -
Precipitation: 0.00 in /  0 mm    
Historical Graphs
 
 
Tabular Data for January 18, 2018
Time Temperature Dew Point Pressure Wind Wind Speed Wind Gust Humidity Rainfall Rate (Hourly)
TemperatureF °F /  -17.8 °C DewpointF °F /  -17.8 °C PressureIn in /  0 hPa Calm     Humidity % HourlyPrecipIn in /  0 mm
00:03 22.8 °F /  -5.1 °C 19.2 °F /  -7.1 °C 30.64 in /  1037.5 hPa Calm   1.0 mph /  1.6 km/h 86 % 0.00 in /  0 mm
00:08 22.3 °F /  -5.4 °C 18.7 °F /  -7.4 °C 30.64 in /  1037.5 hPa Calm     86 % 0.00 in /  0 mm
00:13 21.7 °F /  -5.7 °C 18.1 °F /  -7.7 °C 30.64 in /  1037.5 hPa Calm     86 % 0.00 in /  0 mm
00:18 21.4 °F /  -5.9 °C 17.6 °F /  -8 °C 30.64 in /  1037.5 hPa Calm     85 % 0.00 in /  0 mm
00:23 20.8 °F /  -6.2 °C 17.2 °F /  -8.2 °C 30.63 in /  1037.1 hPa Calm     86 % 0.00 in /  0 mm
00:28 20.8 °F /  -6.2 °C 17.6 °F /  -8 °C 30.63 in /  1037.1 hPa Calm     87 % 0.00 in /  0 mm
00:33 21.6 °F /  -5.8 °C 18.5 °F /  -7.5 °C 30.63 in /  1037.1 hPa Calm     88 % 0.00 in /  0 mm
00:38 21.6 °F /  -5.8 °C 18.3 °F /  -7.6 °C 30.62 in /  1036.8 hPa Calm     87 % 0.00 in /  0 mm
00:44 21.6 °F /  -5.8 °C 18.5 °F /  -7.5 °C 30.62 in /  1036.8 hPa Calm     88 % 0.00 in /  0 mm
00:49 21.9 °F /  -5.6 °C 18.9 °F /  -7.3 °C 30.62 in /  1036.8 hPa Calm     88 % 0.00 in /  0 mm
00:54 22.1 °F /  -5.5 °C 19.4 °F /  -7 °C 30.61 in /  1036.5 hPa Calm     89 % 0.00 in /  0 mm
00:59 22.1 °F /  -5.5 °C 19.0 °F /  -7.2 °C 30.61 in /  1036.5 hPa Calm   1.0 mph /  1.6 km/h 88 % 0.00 in /  0 mm
01:04 21.9 °F /  -5.6 °C 18.9 °F /  -7.3 °C 30.62 in /  1036.8 hPa Calm   1.0 mph /  1.6 km/h 88 % 0.00 in /  0 mm
01:09 21.6 °F /  -5.8 °C 18.5 °F /  -7.5 °C 30.61 in /  1036.5 hPa Calm   1.0 mph /  1.6 km/h 88 % 0.00 in /  0 mm
01:14 21.7 °F /  -5.7 °C 19.0 °F /  -7.2 °C 30.61 in /  1036.5 hPa Calm     89 % 0.00 in /  0 mm
01:19 21.9 °F /  -5.6 °C 19.2 °F /  -7.1 °C 30.61 in /  1036.5 hPa Calm   1.0 mph /  1.6 km/h 89 % 0.00 in /  0 mm
01:24 21.7 °F /  -5.7 °C 18.7 °F /  -7.4 °C 30.61 in /  1036.5 hPa Calm   1.0 mph /  1.6 km/h 88 % 0.00 in /  0 mm
01:29 21.7 °F /  -5.7 °C 18.7 °F /  -7.4 °C 30.61 in /  1036.5 hPa Calm   1.0 mph /  1.6 km/h 88 % 0.00 in /  0 mm
01:34 21.9 °F /  -5.6 °C 19.2 °F /  -7.1 °C 30.61 in /  1036.5 hPa Calm     89 % 0.00 in /  0 mm
01:39 22.3 °F /  -5.4 °C 19.6 °F /  -6.9 °C 30.60 in /  1036.1 hPa Calm   1.0 mph /  1.6 km/h 89 % 0.00 in /  0 mm
01:44 22.5 °F /  -5.3 °C 19.4 °F /  -7 °C 30.60 in /  1036.1 hPa Calm   1.0 mph /  1.6 km/h 88 % 0.00 in /  0 mm
01:49 22.6 °F /  -5.2 °C 19.6 °F /  -6.9 °C 30.60 in /  1036.1 hPa Calm   1.0 mph /  1.6 km/h 88 % 0.00 in /  0 mm
01:54 22.8 °F /  -5.1 °C 19.6 °F /  -6.9 °C 30.61 in /  1036.5 hPa Calm   1.0 mph /  1.6 km/h 87 % 0.00 in /  0 mm
01:59 23.2 °F /  -4.9 °C 19.6 °F /  -6.9 °C 30.61 in /  1036.5 hPa Calm   1.0 mph /  1.6 km/h 86 % 0.00 in /  0 mm
02:04 23.2 °F /  -4.9 °C 19.4 °F /  -7 °C 30.60 in /  1036.1 hPa Calm   1.0 mph /  1.6 km/h 85 % 0.00 in /  0 mm
02:09 23.4 °F /  -4.8 °C 19.2 °F /  -7.1 °C 30.60 in /  1036.1 hPa Calm   1.0 mph /  1.6 km/h 84 % 0.00 in /  0 mm
02:14 23.4 °F /  -4.8 °C 19.0 °F /  -7.2 °C 30.60 in /  1036.1 hPa Calm   1.0 mph /  1.6 km/h 83 % 0.00 in /  0 mm
02:19 23.2 °F /  -4.9 °C 18.9 °F /  -7.3 °C 30.60 in /  1036.1 hPa Calm   1.0 mph /  1.6 km/h 83 % 0.00 in /  0 mm
02:24 23.2 °F /  -4.9 °C 18.5 °F /  -7.5 °C 30.60 in /  1036.1 hPa Calm   1.0 mph /  1.6 km/h 82 % 0.00 in /  0 mm
02:29 23.0 °F /  -5 °C 18.3 °F /  -7.6 °C 30.60 in /  1036.1 hPa Calm     82 % 0.00 in /  0 mm
02:34 22.6 °F /  -5.2 °C 17.8 °F /  -7.9 °C 30.60 in /  1036.1 hPa Calm     81 % 0.00 in /  0 mm
02:39 22.6 °F /  -5.2 °C 18.0 °F /  -7.8 °C 30.60 in /  1036.1 hPa Calm     82 % 0.00 in /  0 mm
02:44 22.6 °F /  -5.2 °C 18.0 °F /  -7.8 °C 30.60 in /  1036.1 hPa Calm     82 % 0.00 in /  0 mm
02:49 22.6 °F /  -5.2 °C 18.0 °F /  -7.8 °C 30.59 in /  1035.8 hPa Calm     82 % 0.00 in /  0 mm
02:54 22.8 °F /  -5.1 °C 18.1 °F /  -7.7 °C 30.59 in /  1035.8 hPa Calm   1.0 mph /  1.6 km/h 82 % 0.00 in /  0 mm
02:59 22.8 °F /  -5.1 °C 18.1 °F /  -7.7 °C 30.59 in /  1035.8 hPa Calm   1.0 mph /  1.6 km/h 82 % 0.00 in /  0 mm
03:04 22.8 °F /  -5.1 °C 18.1 °F /  -7.7 °C 30.59 in /  1035.8 hPa Calm   1.0 mph /  1.6 km/h 82 % 0.00 in /  0 mm
03:09 23.0 °F /  -5 °C 18.3 °F /  -7.6 °C 30.58 in /  1035.4 hPa Calm   1.0 mph /  1.6 km/h 82 % 0.00 in /  0 mm
03:14 23.0 °F /  -5 °C 18.3 °F /  -7.6 °C 30.58 in /  1035.4 hPa Calm   1.0 mph /  1.6 km/h 82 % 0.00 in /  0 mm
03:19 23.2 °F /  -4.9 °C 18.1 °F /  -7.7 °C 30.58 in /  1035.4 hPa Calm   1.0 mph /  1.6 km/h 81 % 0.00 in /  0 mm
03:24 23.2 °F /  -4.9 °C 18.1 °F /  -7.7 °C 30.58 in /  1035.4 hPa Calm   1.0 mph /  1.6 km/h 81 % 0.00 in /  0 mm
03:29 23.0 °F /  -5 °C 18.0 °F /  -7.8 °C 30.58 in /  1035.4 hPa Calm   1.0 mph /  1.6 km/h 81 % 0.00 in /  0 mm
03:34 22.8 °F /  -5.1 °C 18.0 °F /  -7.8 °C 30.58 in /  1035.4 hPa Calm   1.0 mph /  1.6 km/h 81 % 0.00 in /  0 mm
03:39 22.8 °F /  -5.1 °C 18.0 °F /  -7.8 °C 30.58 in /  1035.4 hPa Calm   1.0 mph /  1.6 km/h 81 % 0.00 in /  0 mm
03:45 22.8 °F /  -5.1 °C 18.0 °F /  -7.8 °C 30.58 in /  1035.4 hPa Calm   1.0 mph /  1.6 km/h 81 % 0.00 in /  0 mm
03:50 22.6 °F /  -5.2 °C 17.8 °F /  -7.9 °C 30.58 in /  1035.4 hPa Calm   1.0 mph /  1.6 km/h 81 % 0.00 in /  0 mm
03:55 22.6 °F /  -5.2 °C 17.4 °F /  -8.1 °C 30.58 in /  1035.4 hPa Calm   1.0 mph /  1.6 km/h 80 % 0.00 in /  0 mm
04:00 22.5 °F /  -5.3 °C 17.2 °F /  -8.2 °C 30.58 in /  1035.4 hPa Calm   1.0 mph /  1.6 km/h 80 % 0.00 in /  0 mm
04:05 22.3 °F /  -5.4 °C 17.1 °F /  -8.3 °C 30.58 in /  1035.4 hPa Calm   1.0 mph /  1.6 km/h 80 % 0.00 in /  0 mm
04:10 22.1 °F /  -5.5 °C 17.2 °F /  -8.2 °C 30.58 in /  1035.4 hPa Calm   1.0 mph /  1.6 km/h 81 % 0.00 in /  0 mm
04:15 21.9 °F /  -5.6 °C 17.1 °F /  -8.3 °C 30.58 in /  1035.4 hPa Calm   1.0 mph /  1.6 km/h 81 % 0.00 in /  0 mm
04:20 21.9 °F /  -5.6 °C 17.2 °F /  -8.2 °C 30.58 in /  1035.4 hPa Calm   1.0 mph /  1.6 km/h 82 % 0.00 in /  0 mm
04:25 21.7 °F /  -5.7 °C 17.1 °F /  -8.3 °C 30.58 in /  1035.4 hPa Calm   1.0 mph /  1.6 km/h 82 % 0.00 in /  0 mm
04:30 21.7 °F /  -5.7 °C 17.1 °F /  -8.3 °C 30.58 in /  1035.4 hPa Calm     82 % 0.00 in /  0 mm
04:35 21.9 °F /  -5.6 °C 17.6 °F /  -8 °C 30.58 in /  1035.4 hPa Calm     83 % 0.00 in /  0 mm
04:40 21.9 °F /  -5.6 °C 17.6 °F /  -8 °C 30.58 in /  1035.4 hPa Calm     83 % 0.00 in /  0 mm
04:45 21.9 °F /  -5.6 °C 17.6 °F /  -8 °C 30.58 in /  1035.4 hPa Calm     83 % 0.00 in /  0 mm
04:50 21.7 °F /  -5.7 °C 17.4 °F /  -8.1 °C 30.57 in /  1035.1 hPa Calm     83 % 0.00 in /  0 mm
04:55 21.9 °F /  -5.6 °C 17.6 °F /  -8 °C 30.57 in /  1035.1 hPa Calm     83 % 0.00 in /  0 mm
05:00 21.7 °F /  -5.7 °C 17.4 °F /  -8.1 °C 30.57 in /  1035.1 hPa Calm     83 % 0.00 in /  0 mm
05:05 21.6 °F /  -5.8 °C 17.2 °F /  -8.2 °C 30.57 in /  1035.1 hPa Calm     83 % 0.00 in /  0 mm
05:10 21.6 °F /  -5.8 °C 17.2 °F /  -8.2 °C 30.57 in /  1035.1 hPa Calm     83 % 0.00 in /  0 mm
05:15 21.4 °F /  -5.9 °C 17.2 °F /  -8.2 °C 30.58 in /  1035.4 hPa Calm     84 % 0.00 in /  0 mm
05:20 21.4 °F /  -5.9 °C 17.2 °F /  -8.2 °C 30.57 in /  1035.1 hPa Calm     84 % 0.00 in /  0 mm
05:25 21.6 °F /  -5.8 °C 17.8 °F /  -7.9 °C 30.57 in /  1035.1 hPa Calm     85 % 0.00 in /  0 mm
05:30 21.4 °F /  -5.9 °C 17.2 °F /  -8.2 °C 30.57 in /  1035.1 hPa Calm     84 % 0.00 in /  0 mm
05:35 21.6 °F /  -5.8 °C 17.8 °F /  -7.9 °C 30.57 in /  1035.1 hPa Calm   1.0 mph /  1.6 km/h 85 % 0.00 in /  0 mm
05:40 21.7 °F /  -5.7 °C 18.0 °F /  -7.8 °C 30.57 in /  1035.1 hPa Calm   1.0 mph /  1.6 km/h 85 % 0.00 in /  0 mm
05:45 21.7 °F /  -5.7 °C 18.0 °F /  -7.8 °C 30.57 in /  1035.1 hPa Calm   1.0 mph /  1.6 km/h 85 % 0.00 in /  0 mm
05:50 21.9 °F /  -5.6 °C 18.1 °F /  -7.7 °C 30.57 in /  1035.1 hPa Calm   1.0 mph /  1.6 km/h 85 % 0.00 in /  0 mm
05:55 21.7 °F /  -5.7 °C 18.0 °F /  -7.8 °C 30.57 in /  1035.1 hPa Calm   1.0 mph /  1.6 km/h 85 % 0.00 in /  0 mm
06:00 21.7 °F /  -5.7 °C 18.0 °F /  -7.8 °C 30.58 in /  1035.4 hPa Calm   1.0 mph /  1.6 km/h 85 % 0.00 in /  0 mm
06:05 21.9 °F /  -5.6 °C 18.1 °F /  -7.7 °C 30.58 in /  1035.4 hPa Calm   1.0 mph /  1.6 km/h 85 % 0.00 in /  0 mm
06:10 22.1 °F /  -5.5 °C 18.3 °F /  -7.6 °C 30.58 in /  1035.4 hPa Calm   1.0 mph /  1.6 km/h 85 % 0.00 in /  0 mm
06:15 22.5 °F /  -5.3 °C 18.7 °F /  -7.4 °C 30.58 in /  1035.4 hPa NNW 1.0 mph /  1.6 km/h 1.0 mph /  1.6 km/h 85 % 0.00 in /  0 mm
06:20 22.8 °F /  -5.1 °C 18.7 °F /  -7.4 °C 30.58 in /  1035.4 hPa Calm   1.0 mph /  1.6 km/h 84 % 0.00 in /  0 mm
06:25 23.2 °F /  -4.9 °C 19.0 °F /  -7.2 °C 30.58 in /  1035.4 hPa Calm   1.0 mph /  1.6 km/h 84 % 0.00 in /  0 mm
06:30 23.4 °F /  -4.8 °C 19.2 °F /  -7.1 °C 30.58 in /  1035.4 hPa Calm   1.0 mph /  1.6 km/h 84 % 0.00 in /  0 mm
06:35 23.5 °F /  -4.7 °C 19.2 °F /  -7.1 °C 30.58 in /  1035.4 hPa Calm   1.0 mph /  1.6 km/h 83 % 0.00 in /  0 mm
06:40 23.9 °F /  -4.5 °C 19.6 °F /  -6.9 °C 30.58 in /  1035.4 hPa Calm   1.0 mph /  1.6 km/h 83 % 0.00 in /  0 mm
06:45 24.3 °F /  -4.3 °C 19.8 °F /  -6.8 °C 30.58 in /  1035.4 hPa Calm   1.0 mph /  1.6 km/h 83 % 0.00 in /  0 mm
06:50 24.4 °F /  -4.2 °C 19.9 °F /  -6.7 °C 30.58 in /  1035.4 hPa Calm   1.0 mph /  1.6 km/h 83 % 0.00 in /  0 mm
06:55 24.6 °F /  -4.1 °C 19.9 °F /  -6.7 °C 30.58 in /  1035.4 hPa Calm   1.0 mph /  1.6 km/h 82 % 0.00 in /  0 mm
07:01 24.6 °F /  -4.1 °C 19.9 °F /  -6.7 °C 30.57 in /  1035.1 hPa Calm   2.0 mph /  3.2 km/h 82 % 0.00 in /  0 mm
07:06 24.8 °F /  -4 °C 19.8 °F /  -6.8 °C 30.58 in /  1035.4 hPa NE 1.0 mph /  1.6 km/h 2.0 mph /  3.2 km/h 81 % 0.00 in /  0 mm
07:11 25.0 °F /  -3.9 °C 19.8 °F /  -6.8 °C 30.57 in /  1035.1 hPa Calm   2.0 mph /  3.2 km/h 80 % 0.00 in /  0 mm
07:16 25.2 °F /  -3.8 °C 19.6 °F /  -6.9 °C 30.57 in /  1035.1 hPa Calm   3.0 mph /  4.8 km/h 79 % 0.00 in /  0 mm
07:21 25.3 °F /  -3.7 °C 19.4 °F /  -7 °C 30.57 in /  1035.1 hPa NW 1.0 mph /  1.6 km/h 3.0 mph /  4.8 km/h 78 % 0.00 in /  0 mm
07:26 25.3 °F /  -3.7 °C 19.4 °F /  -7 °C 30.56 in /  1034.8 hPa Calm   3.0 mph /  4.8 km/h 78 % 0.00 in /  0 mm
07:31 25.5 °F /  -3.6 °C 19.4 °F /  -7 °C 30.56 in /  1034.8 hPa Calm   3.0 mph /  4.8 km/h 77 % 0.00 in /  0 mm
07:36 25.5 °F /  -3.6 °C 19.4 °F /  -7 °C 30.56 in /  1034.8 hPa ENE 2.0 mph /  3.2 km/h 5.0 mph /  8 km/h 77 % 0.00 in /  0 mm
07:41 25.5 °F /  -3.6 °C 19.0 °F /  -7.2 °C 30.57 in /  1035.1 hPa Calm   5.0 mph /  8 km/h 76 % 0.00 in /  0 mm
07:46 25.5 °F /  -3.6 °C 19.4 °F /  -7 °C 30.57 in /  1035.1 hPa Calm   5.0 mph /  8 km/h 77 % 0.00 in /  0 mm
07:51 25.7 °F /  -3.5 °C 19.6 °F /  -6.9 °C 30.57 in /  1035.1 hPa North 1.0 mph /  1.6 km/h 3.0 mph /  4.8 km/h 77 % 0.00 in /  0 mm
07:56 25.9 °F /  -3.4 °C 19.4 °F /  -7 °C 30.57 in /  1035.1 hPa East 1.0 mph /  1.6 km/h 6.0 mph /  9.7 km/h 76 % 0.00 in /  0 mm
08:01 25.9 °F /  -3.4 °C 19.4 °F /  -7 °C 30.57 in /  1035.1 hPa Calm   6.0 mph /  9.7 km/h 76 % 0.00 in /  0 mm
08:06 26.1 °F /  -3.3 °C 19.2 °F /  -7.1 °C 30.58 in /  1035.4 hPa Calm   6.0 mph /  9.7 km/h 75 % 0.00 in /  0 mm
08:11 26.2 °F /  -3.2 °C 19.4 °F /  -7 °C 30.58 in /  1035.4 hPa North 1.0 mph /  1.6 km/h 3.0 mph /  4.8 km/h 75 % 0.00 in /  0 mm
08:16 26.4 °F /  -3.1 °C 19.6 °F /  -6.9 °C 30.58 in /  1035.4 hPa Calm   3.0 mph /  4.8 km/h 75 % 0.00 in /  0 mm
08:21 26.8 °F /  -2.9 °C 19.9 °F /  -6.7 °C 30.58 in /  1035.4 hPa Calm   2.0 mph /  3.2 km/h 75 % 0.00 in /  0 mm
08:26 27.0 °F /  -2.8 °C 20.1 °F /  -6.6 °C 30.58 in /  1035.4 hPa ESE 1.0 mph /  1.6 km/h 2.0 mph /  3.2 km/h 75 % 0.00 in /  0 mm
08:31 27.1 °F /  -2.7 °C 19.9 °F /  -6.7 °C 30.58 in /  1035.4 hPa Calm   2.0 mph /  3.2 km/h 74 % 0.00 in /  0 mm
08:36 27.1 °F /  -2.7 °C 19.6 °F /  -6.9 °C 30.58 in /  1035.4 hPa Calm   3.0 mph /  4.8 km/h 73 % 0.00 in /  0 mm
08:41 27.3 °F /  -2.6 °C 19.8 °F /  -6.8 °C 30.59 in /  1035.8 hPa North 1.0 mph /  1.6 km/h 3.0 mph /  4.8 km/h 73 % 0.00 in /  0 mm
08:46 27.7 °F /  -2.4 °C 20.1 °F /  -6.6 °C 30.58 in /  1035.4 hPa Calm   3.0 mph /  4.8 km/h 73 % 0.00 in /  0 mm
08:51 27.9 °F /  -2.3 °C 19.9 °F /  -6.7 °C 30.58 in /  1035.4 hPa North 1.0 mph /  1.6 km/h 1.0 mph /  1.6 km/h 72 % 0.00 in /  0 mm
08:56 28.0 °F /  -2.2 °C 19.9 °F /  -6.7 °C 30.59 in /  1035.8 hPa Calm   2.0 mph /  3.2 km/h 71 % 0.00 in /  0 mm
09:01 28.2 °F /  -2.1 °C 19.4 °F /  -7 °C 30.59 in /  1035.8 hPa Calm   3.0 mph /  4.8 km/h 69 % 0.00 in /  0 mm
09:06 28.2 °F /  -2.1 °C 19.0 °F /  -7.2 °C 30.59 in /  1035.8 hPa Calm   3.0 mph /  4.8 km/h 68 % 0.00 in /  0 mm
09:11 28.6 °F /  -1.9 °C 19.0 °F /  -7.2 °C 30.59 in /  1035.8 hPa East 1.0 mph /  1.6 km/h 3.0 mph /  4.8 km/h 67 % 0.00 in /  0 mm
09:16 28.8 °F /  -1.8 °C 19.2 °F /  -7.1 °C 30.59 in /  1035.8 hPa Calm   4.0 mph /  6.4 km/h 67 % 0.00 in /  0 mm
09:21 28.9 °F /  -1.7 °C 19.0 °F /  -7.2 °C 30.59 in /  1035.8 hPa Calm   4.0 mph /  6.4 km/h 66 % 0.00 in /  0 mm
09:26 29.3 °F /  -1.5 °C 19.4 °F /  -7 °C 30.59 in /  1035.8 hPa ENE 3.0 mph /  4.8 km/h 4.0 mph /  6.4 km/h 66 % 0.00 in /  0 mm
09:31 29.7 °F /  -1.3 °C 19.4 °F /  -7 °C 30.60 in /  1036.1 hPa East 2.0 mph /  3.2 km/h 4.0 mph /  6.4 km/h 65 % 0.00 in /  0 mm
09:36 30.2 °F /  -1 °C 19.9 °F /  -6.7 °C 30.60 in /  1036.1 hPa ENE 1.0 mph /  1.6 km/h 4.0 mph /  6.4 km/h 65 % 0.00 in /  0 mm
09:41 30.4 °F /  -0.9 °C 19.2 °F /  -7.1 °C 30.60 in /  1036.1 hPa NNW 1.0 mph /  1.6 km/h 4.0 mph /  6.4 km/h 63 % 0.00 in /  0 mm
09:46 30.7 °F /  -0.7 °C 19.6 °F /  -6.9 °C 30.61 in /  1036.5 hPa NE 3.0 mph /  4.8 km/h 4.0 mph /  6.4 km/h 63 % 0.00 in /  0 mm
09:51 30.9 °F /  -0.6 °C 19.0 °F /  -7.2 °C 30.61 in /  1036.5 hPa Calm   4.0 mph /  6.4 km/h 61 % 0.00 in /  0 mm
09:56 31.3 °F /  -0.4 °C 19.4 °F /  -7 °C 30.61 in /  1036.5 hPa Calm   4.0 mph /  6.4 km/h 61 % 0.00 in /  0 mm
10:01 31.6 °F /  -0.2 °C 20.1 °F /  -6.6 °C 30.61 in /  1036.5 hPa Calm   4.0 mph /  6.4 km/h 62 % 0.00 in /  0 mm
10:06 32.0 °F /  0 °C 19.8 °F /  -6.8 °C 30.61 in /  1036.5 hPa SE 1.0 mph /  1.6 km/h 3.0 mph /  4.8 km/h 60 % 0.00 in /  0 mm
10:11 32.4 °F /  0.2 °C 19.6 °F /  -6.9 °C 30.61 in /  1036.5 hPa East 1.0 mph /  1.6 km/h 5.0 mph /  8 km/h 59 % 0.00 in /  0 mm
10:17 32.7 °F /  0.4 °C 19.9 °F /  -6.7 °C 30.61 in /  1036.5 hPa NNE 1.0 mph /  1.6 km/h 5.0 mph /  8 km/h 59 % 0.00 in /  0 mm
10:22 32.9 °F /  0.5 °C 18.9 °F /  -7.3 °C 30.61 in /  1036.5 hPa North 1.0 mph /  1.6 km/h 5.0 mph /  8 km/h 56 % 0.00 in /  0 mm
10:27 32.9 °F /  0.5 °C 19.4 °F /  -7 °C 30.61 in /  1036.5 hPa SE 1.0 mph /  1.6 km/h 4.0 mph /  6.4 km/h 57 % 0.00 in /  0 mm
10:32 33.3 °F /  0.7 °C 19.2 °F /  -7.1 °C 30.61 in /  1036.5 hPa Calm   4.0 mph /  6.4 km/h 56 % 0.00 in /  0 mm
10:37 33.6 °F /  0.9 °C 19.6 °F /  -6.9 °C 30.61 in /  1036.5 hPa Calm   4.0 mph /  6.4 km/h 56 % 0.00 in /  0 mm
10:42 34.0 °F /  1.1 °C 19.0 °F /  -7.2 °C 30.61 in /  1036.5 hPa South 2.0 mph /  3.2 km/h 4.0 mph /  6.4 km/h 54 % 0.00 in /  0 mm
10:47 34.0 °F /  1.1 °C 18.7 °F /  -7.4 °C 30.60 in /  1036.1 hPa SE 1.0 mph /  1.6 km/h 4.0 mph /  6.4 km/h 53 % 0.00 in /  0 mm
10:52 34.2 °F /  1.2 °C 19.2 °F /  -7.1 °C 30.60 in /  1036.1 hPa Calm   4.0 mph /  6.4 km/h 54 % 0.00 in /  0 mm
10:57 34.2 °F /  1.2 °C 18.9 °F /  -7.3 °C 30.60 in /  1036.1 hPa Calm   4.0 mph /  6.4 km/h 53 % 0.00 in /  0 mm
11:02 34.2 °F /  1.2 °C 18.9 °F /  -7.3 °C 30.60 in /  1036.1 hPa SSE 4.0 mph /  6.4 km/h 4.0 mph /  6.4 km/h 53 % 0.00 in /  0 mm
11:07 34.2 °F /  1.2 °C 18.9 °F /  -7.3 °C 30.60 in /  1036.1 hPa East 2.0 mph /  3.2 km/h 6.0 mph /  9.7 km/h 53 % 0.00 in /  0 mm
11:12 34.2 °F /  1.2 °C 18.9 °F /  -7.3 °C 30.60 in /  1036.1 hPa East 1.0 mph /  1.6 km/h 6.0 mph /  9.7 km/h 53 % 0.00 in /  0 mm
11:17 34.5 °F /  1.4 °C 19.6 °F /  -6.9 °C 30.59 in /  1035.8 hPa ENE 1.0 mph /  1.6 km/h 6.0 mph /  9.7 km/h 54 % 0.00 in /  0 mm
11:22 34.5 °F /  1.4 °C 19.6 °F /  -6.9 °C 30.58 in /  1035.4 hPa ESE 3.0 mph /  4.8 km/h 3.0 mph /  4.8 km/h 54 % 0.00 in /  0 mm
11:27 34.9 °F /  1.6 °C 19.4 °F /  -7 °C 30.58 in /  1035.4 hPa Calm   4.0 mph /  6.4 km/h 53 % 0.00 in /  0 mm
11:32 35.1 °F /  1.7 °C 20.1 °F /  -6.6 °C 30.58 in /  1035.4 hPa SSE 1.0 mph /  1.6 km/h 4.0 mph /  6.4 km/h 54 % 0.00 in /  0 mm
11:37 35.2 °F /  1.8 °C 19.8 °F /  -6.8 °C 30.58 in /  1035.4 hPa SSE 2.0 mph /  3.2 km/h 5.0 mph /  8 km/h 53 % 0.00 in /  0 mm
11:42 35.8 °F /  2.1 °C 20.3 °F /  -6.5 °C 30.57 in /  1035.1 hPa Calm   5.0 mph /  8 km/h 53 % 0.00 in /  0 mm
11:47 36.0 °F /  2.2 °C 19.6 °F /  -6.9 °C 30.57 in /  1035.1 hPa ESE 4.0 mph /  6.4 km/h 5.0 mph /  8 km/h 51 % 0.00 in /  0 mm
11:52 35.8 °F /  2.1 °C 18.5 °F /  -7.5 °C 30.57 in /  1035.1 hPa Calm   5.0 mph /  8 km/h 49 % 0.00 in /  0 mm
11:57 36.0 °F /  2.2 °C 18.7 °F /  -7.4 °C 30.56 in /  1034.8 hPa Calm   5.0 mph /  8 km/h 49 % 0.00 in /  0 mm
12:02 36.1 °F /  2.3 °C 18.3 °F /  -7.6 °C 30.56 in /  1034.8 hPa ESE 3.0 mph /  4.8 km/h 6.0 mph /  9.7 km/h 48 % 0.00 in /  0 mm
12:07 36.1 °F /  2.3 °C 17.8 °F /  -7.9 °C 30.56 in /  1034.8 hPa South 1.0 mph /  1.6 km/h 6.0 mph /  9.7 km/h 47 % 0.00 in /  0 mm
12:12 36.1 °F /  2.3 °C 17.8 °F /  -7.9 °C 30.56 in /  1034.8 hPa East 4.0 mph /  6.4 km/h 6.0 mph /  9.7 km/h 47 % 0.00 in /  0 mm
12:17 36.1 °F /  2.3 °C 18.9 °F /  -7.3 °C 30.55 in /  1034.4 hPa SSE 4.0 mph /  6.4 km/h 7.0 mph /  11.3 km/h 49 % 0.00 in /  0 mm
12:22 36.3 °F /  2.4 °C 19.0 °F /  -7.2 °C 30.54 in /  1034.1 hPa Calm   7.0 mph /  11.3 km/h 49 % 0.00 in /  0 mm
12:27 36.7 °F /  2.6 °C 19.4 °F /  -7 °C 30.54 in /  1034.1 hPa ESE 3.0 mph /  4.8 km/h 7.0 mph /  11.3 km/h 49 % 0.00 in /  0 mm
12:32 36.7 °F /  2.6 °C 19.4 °F /  -7 °C 30.54 in /  1034.1 hPa SE 1.0 mph /  1.6 km/h 5.0 mph /  8 km/h 49 % 0.00 in /  0 mm
12:37 36.7 °F /  2.6 °C 19.4 °F /  -7 °C 30.54 in /  1034.1 hPa SE 2.0 mph /  3.2 km/h 4.0 mph /  6.4 km/h 49 % 0.00 in /  0 mm
12:42 36.7 °F /  2.6 °C 18.3 °F /  -7.6 °C 30.53 in /  1033.7 hPa ESE 3.0 mph /  4.8 km/h 5.0 mph /  8 km/h 47 % 0.00 in /  0 mm
12:47 36.7 °F /  2.6 °C 17.8 °F /  -7.9 °C 30.53 in /  1033.7 hPa Calm   5.0 mph /  8 km/h 46 % 0.00 in /  0 mm
12:52 36.5 °F /  2.5 °C 18.1 °F /  -7.7 °C 30.52 in /  1033.4 hPa Calm   5.0 mph /  8 km/h 47 % 0.00 in /  0 mm
12:57 36.7 °F /  2.6 °C 18.3 °F /  -7.6 °C 30.52 in /  1033.4 hPa Calm   5.0 mph /  8 km/h 47 % 0.00 in /  0 mm
13:02 36.7 °F /  2.6 °C 17.8 °F /  -7.9 °C 30.51 in /  1033.1 hPa East 1.0 mph /  1.6 km/h 5.0 mph /  8 km/h 46 % 0.00 in /  0 mm
13:07 36.7 °F /  2.6 °C 17.4 °F /  -8.1 °C 30.51 in /  1033.1 hPa ESE 3.0 mph /  4.8 km/h 5.0 mph /  8 km/h 45 % 0.00 in /  0 mm
13:12 36.7 °F /  2.6 °C 17.8 °F /  -7.9 °C 30.51 in /  1033.1 hPa SE 3.0 mph /  4.8 km/h 5.0 mph /  8 km/h 46 % 0.00 in /  0 mm
13:17 36.5 °F /  2.5 °C 16.7 °F /  -8.5 °C 30.51 in /  1033.1 hPa East 2.0 mph /  3.2 km/h 5.0 mph /  8 km/h 44 % 0.00 in /  0 mm
13:22 36.7 °F /  2.6 °C 18.3 °F /  -7.6 °C 30.51 in /  1033.1 hPa SSE 1.0 mph /  1.6 km/h 5.0 mph /  8 km/h 47 % 0.00 in /  0 mm
13:27 37.2 °F /  2.9 °C 17.8 °F /  -7.9 °C 30.50 in /  1032.7 hPa ESE 3.0 mph /  4.8 km/h 5.0 mph /  8 km/h 45 % 0.00 in /  0 mm
13:32 37.0 °F /  2.8 °C 17.1 °F /  -8.3 °C 30.50 in /  1032.7 hPa East 3.0 mph /  4.8 km/h 4.0 mph /  6.4 km/h 44 % 0.00 in /  0 mm
13:37 36.9 °F /  2.7 °C 17.1 °F /  -8.3 °C 30.49 in /  1032.4 hPa East 2.0 mph /  3.2 km/h 4.0 mph /  6.4 km/h 44 % 0.00 in /  0 mm
13:42 37.0 °F /  2.8 °C 18.1 °F /  -7.7 °C 30.49 in /  1032.4 hPa ENE 2.0 mph /  3.2 km/h 4.0 mph /  6.4 km/h 46 % 0.00 in /  0 mm
13:47 37.2 °F /  2.9 °C 16.7 °F /  -8.5 °C 30.49 in /  1032.4 hPa SE 1.0 mph /  1.6 km/h 5.0 mph /  8 km/h 43 % 0.00 in /  0 mm
13:52 37.2 °F /  2.9 °C 16.7 °F /  -8.5 °C 30.49 in /  1032.4 hPa SE 2.0 mph /  3.2 km/h 5.0 mph /  8 km/h 43 % 0.00 in /  0 mm
13:57 37.6 °F /  3.1 °C 17.1 °F /  -8.3 °C 30.48 in /  1032.1 hPa Calm   6.0 mph /  9.7 km/h 43 % 0.00 in /  0 mm
14:02 37.8 °F /  3.2 °C 17.8 °F /  -7.9 °C 30.48 in /  1032.1 hPa SE 1.0 mph /  1.6 km/h 6.0 mph /  9.7 km/h 44 % 0.00 in /  0 mm
14:07 37.6 °F /  3.1 °C 17.1 °F /  -8.3 °C 30.48 in /  1032.1 hPa ESE 2.0 mph /  3.2 km/h 6.0 mph /  9.7 km/h 43 % 0.00 in /  0 mm
14:12 37.6 °F /  3.1 °C 17.1 °F /  -8.3 °C 30.48 in /  1032.1 hPa East 2.0 mph /  3.2 km/h 4.0 mph /  6.4 km/h 43 % 0.00 in /  0 mm
14:17 37.2 °F /  2.9 °C 16.7 °F /  -8.5 °C 30.48 in /  1032.1 hPa SSW 2.0 mph /  3.2 km/h 4.0 mph /  6.4 km/h 43 % 0.00 in /  0 mm
14:22 37.4 °F /  3 °C 16.9 °F /  -8.4 °C 30.48 in /  1032.1 hPa Calm   5.0 mph /  8 km/h 43 % 0.00 in /  0 mm
14:27 37.6 °F /  3.1 °C 17.6 °F /  -8 °C 30.47 in /  1031.7 hPa Calm   5.0 mph /  8 km/h 44 % 0.00 in /  0 mm
14:32 37.6 °F /  3.1 °C 17.1 °F /  -8.3 °C 30.47 in /  1031.7 hPa SE 1.0 mph /  1.6 km/h 5.0 mph /  8 km/h 43 % 0.00 in /  0 mm
14:37 37.6 °F /  3.1 °C 17.1 °F /  -8.3 °C 30.47 in /  1031.7 hPa Calm   5.0 mph /  8 km/h 43 % 0.00 in /  0 mm
14:42 37.6 °F /  3.1 °C 17.1 °F /  -8.3 °C 30.47 in /  1031.7 hPa SSE 1.0 mph /  1.6 km/h 5.0 mph /  8 km/h 43 % 0.00 in /  0 mm
14:47 37.8 °F /  3.2 °C 17.8 °F /  -7.9 °C 30.47 in /  1031.7 hPa SSE 1.0 mph /  1.6 km/h 5.0 mph /  8 km/h 44 % 0.00 in /  0 mm
14:52 37.9 °F /  3.3 °C 18.0 °F /  -7.8 °C 30.46 in /  1031.4 hPa Calm   3.0 mph /  4.8 km/h 44 % 0.00 in /  0 mm
14:57 38.1 °F /  3.4 °C 18.1 °F /  -7.7 °C 30.46 in /  1031.4 hPa ENE 1.0 mph /  1.6 km/h 3.0 mph /  4.8 km/h 44 % 0.00 in /  0 mm
15:02 38.1 °F /  3.4 °C 18.1 °F /  -7.7 °C 30.46 in /  1031.4 hPa Calm   3.0 mph /  4.8 km/h 44 % 0.00 in /  0 mm
15:07 38.3 °F /  3.5 °C 18.3 °F /  -7.6 °C 30.46 in /  1031.4 hPa SSW 1.0 mph /  1.6 km/h 3.0 mph /  4.8 km/h 44 % 0.00 in /  0 mm
15:12 38.5 °F /  3.6 °C 18.0 °F /  -7.8 °C 30.45 in /  1031 hPa South 3.0 mph /  4.8 km/h 3.0 mph /  4.8 km/h 43 % 0.00 in /  0 mm
15:17 38.5 °F /  3.6 °C 18.5 °F /  -7.5 °C 30.45 in /  1031 hPa SE 3.0 mph /  4.8 km/h 4.0 mph /  6.4 km/h 44 % 0.00 in /  0 mm
15:22 38.3 °F /  3.5 °C 17.2 °F /  -8.2 °C 30.45 in /  1031 hPa SE 2.0 mph /  3.2 km/h 4.0 mph /  6.4 km/h 42 % 0.00 in /  0 mm
15:27 38.5 °F /  3.6 °C 18.0 °F /  -7.8 °C 30.45 in /  1031 hPa Calm   4.0 mph /  6.4 km/h 43 % 0.00 in /  0 mm
15:32 38.7 °F /  3.7 °C 18.1 °F /  -7.7 °C 30.45 in /  1031 hPa SSE 4.0 mph /  6.4 km/h 4.0 mph /  6.4 km/h 43 % 0.00 in /  0 mm
15:37 38.7 °F /  3.7 °C 17.1 °F /  -8.3 °C 30.45 in /  1031 hPa SE 3.0 mph /  4.8 km/h 4.0 mph /  6.4 km/h 41 % 0.00 in /  0 mm
15:42 38.5 °F /  3.6 °C 17.4 °F /  -8.1 °C 30.45 in /  1031 hPa Calm   5.0 mph /  8 km/h 42 % 0.00 in /  0 mm
15:47 38.5 °F /  3.6 °C 17.4 °F /  -8.1 °C 30.45 in /  1031 hPa East 2.0 mph /  3.2 km/h 5.0 mph /  8 km/h 42 % 0.00 in /  0 mm
15:52 38.5 °F /  3.6 °C 18.0 °F /  -7.8 °C 30.45 in /  1031 hPa SSW 4.0 mph /  6.4 km/h 5.0 mph /  8 km/h 43 % 0.00 in /  0 mm
15:57 38.5 °F /  3.6 °C 18.0 °F /  -7.8 °C 30.45 in /  1031 hPa SSW 1.0 mph /  1.6 km/h 4.0 mph /  6.4 km/h 43 % 0.00 in /  0 mm
16:02 38.3 °F /  3.5 °C 17.8 °F /  -7.9 °C 30.44 in /  1030.7 hPa SE 2.0 mph /  3.2 km/h 4.0 mph /  6.4 km/h 43 % 0.00 in /  0 mm
16:07 38.3 °F /  3.5 °C 18.3 °F /  -7.6 °C 30.44 in /  1030.7 hPa ESE 1.0 mph /  1.6 km/h 4.0 mph /  6.4 km/h 44 % 0.00 in /  0 mm
16:12 38.3 °F /  3.5 °C 18.3 °F /  -7.6 °C 30.44 in /  1030.7 hPa SSE 3.0 mph /  4.8 km/h 3.0 mph /  4.8 km/h 44 % 0.00 in /  0 mm
16:17 38.3 °F /  3.5 °C 17.8 °F /  -7.9 °C 30.44 in /  1030.7 hPa South 2.0 mph /  3.2 km/h 4.0 mph /  6.4 km/h 43 % 0.00 in /  0 mm
16:22 38.3 °F /  3.5 °C 18.3 °F /  -7.6 °C 30.44 in /  1030.7 hPa ESE 2.0 mph /  3.2 km/h 4.0 mph /  6.4 km/h 44 % 0.00 in /  0 mm
16:27 38.3 °F /  3.5 °C 18.3 °F /  -7.6 °C 30.44 in /  1030.7 hPa Calm   4.0 mph /  6.4 km/h 44 % 0.00 in /  0 mm
16:33 38.3 °F /  3.5 °C 18.3 °F /  -7.6 °C 30.44 in /  1030.7 hPa South 1.0 mph /  1.6 km/h 3.0 mph /  4.8 km/h 44 % 0.00 in /  0 mm
16:38 38.1 °F /  3.4 °C 18.1 °F /  -7.7 °C 30.44 in /  1030.7 hPa East 1.0 mph /  1.6 km/h 3.0 mph /  4.8 km/h 44 % 0.00 in /  0 mm
16:43 38.1 °F /  3.4 °C 18.1 °F /  -7.7 °C 30.44 in /  1030.7 hPa SE 2.0 mph /  3.2 km/h 3.0 mph /  4.8 km/h 44 % 0.00 in /  0 mm
16:48 38.1 °F /  3.4 °C 18.7 °F /  -7.4 °C 30.44 in /  1030.7 hPa Calm   3.0 mph /  4.8 km/h 45 % 0.00 in /  0 mm
16:53 38.1 °F /  3.4 °C 19.2 °F /  -7.1 °C 30.44 in /  1030.7 hPa Calm   3.0 mph /  4.8 km/h 46 % 0.00 in /  0 mm
16:58 38.1 °F /  3.4 °C 18.7 °F /  -7.4 °C 30.44 in /  1030.7 hPa Calm   3.0 mph /  4.8 km/h 45 % 0.00 in /  0 mm
17:03 38.1 °F /  3.4 °C 19.2 °F /  -7.1 °C 30.44 in /  1030.7 hPa SE 1.0 mph /  1.6 km/h 2.0 mph /  3.2 km/h 46 % 0.00 in /  0 mm
17:08 37.9 °F /  3.3 °C 18.5 °F /  -7.5 °C 30.44 in /  1030.7 hPa SE 1.0 mph /  1.6 km/h 2.0 mph /  3.2 km/h 45 % 0.00 in /  0 mm
17:13 37.9 °F /  3.3 °C 18.5 °F /  -7.5 °C 30.44 in /  1030.7 hPa Calm   2.0 mph /  3.2 km/h 45 % 0.00 in /  0 mm
17:18 37.8 °F /  3.2 °C 18.3 °F /  -7.6 °C 30.44 in /  1030.7 hPa Calm   3.0 mph /  4.8 km/h 45 % 0.00 in /  0 mm
17:23 37.8 °F /  3.2 °C 18.9 °F /  -7.3 °C 30.44 in /  1030.7 hPa Calm   3.0 mph /  4.8 km/h 46 % 0.00 in /  0 mm
17:28 37.8 °F /  3.2 °C 18.9 °F /  -7.3 °C 30.44 in /  1030.7 hPa SE 1.0 mph /  1.6 km/h 3.0 mph /  4.8 km/h 46 % 0.00 in /  0 mm
17:33 37.8 °F /  3.2 °C 18.9 °F /  -7.3 °C 30.44 in /  1030.7 hPa East 2.0 mph /  3.2 km/h 3.0 mph /  4.8 km/h 46 % 0.00 in /  0 mm
17:38 37.8 °F /  3.2 °C 18.9 °F /  -7.3 °C 30.44 in /  1030.7 hPa East 1.0 mph /  1.6 km/h 2.0 mph /  3.2 km/h 46 % 0.00 in /  0 mm
17:43 37.8 °F /  3.2 °C 18.9 °F /  -7.3 °C 30.44 in /  1030.7 hPa Calm   3.0 mph /  4.8 km/h 46 % 0.00 in /  0 mm
17:48 37.8 °F /  3.2 °C 19.4 °F /  -7 °C 30.44 in /  1030.7 hPa Calm   3.0 mph /  4.8 km/h 47 % 0.00 in /  0 mm
17:53 37.8 °F /  3.2 °C 19.4 °F /  -7 °C 30.43 in /  1030.4 hPa Calm   3.0 mph /  4.8 km/h 47 % 0.00 in /  0 mm
17:58 37.6 °F /  3.1 °C 19.2 °F /  -7.1 °C 30.43 in /  1030.4 hPa Calm   1.0 mph /  1.6 km/h 47 % 0.00 in /  0 mm
18:03 37.6 °F /  3.1 °C 19.2 °F /  -7.1 °C 30.44 in /  1030.7 hPa Calm   1.0 mph /  1.6 km/h 47 % 0.00 in /  0 mm
18:08 37.6 °F /  3.1 °C 20.1 °F /  -6.6 °C 30.44 in /  1030.7 hPa Calm   1.0 mph /  1.6 km/h 49 % 0.00 in /  0 mm
18:13 37.6 °F /  3.1 °C 20.1 °F /  -6.6 °C 30.43 in /  1030.4 hPa Calm   1.0 mph /  1.6 km/h 49 % 0.00 in /  0 mm
18:18 37.6 °F /  3.1 °C 20.1 °F /  -6.6 °C 30.43 in /  1030.4 hPa Calm   2.0 mph /  3.2 km/h 49 % 0.00 in /  0 mm
18:23 37.6 °F /  3.1 °C 20.1 °F /  -6.6 °C 30.44 in /  1030.7 hPa Calm   2.0 mph /  3.2 km/h 49 % 0.00 in /  0 mm
18:28 37.6 °F /  3.1 °C 20.1 °F /  -6.6 °C 30.43 in /  1030.4 hPa Calm   2.0 mph /  3.2 km/h 49 % 0.00 in /  0 mm
18:33 37.6 °F /  3.1 °C 20.7 °F /  -6.3 °C 30.43 in /  1030.4 hPa Calm   1.0 mph /  1.6 km/h 50 % 0.00 in /  0 mm
18:38 37.6 °F /  3.1 °C 20.7 °F /  -6.3 °C 30.43 in /  1030.4 hPa Calm   1.0 mph /  1.6 km/h 50 % 0.00 in /  0 mm
18:43 37.6 °F /  3.1 °C 20.7 °F /  -6.3 °C 30.43 in /  1030.4 hPa East 1.0 mph /  1.6 km/h 1.0 mph /  1.6 km/h 50 % 0.00 in /  0 mm
18:48 37.6 °F /  3.1 °C 20.7 °F /  -6.3 °C 30.43 in /  1030.4 hPa Calm   1.0 mph /  1.6 km/h 50 % 0.00 in /  0 mm
18:53 37.6 °F /  3.1 °C 20.7 °F /  -6.3 °C 30.43 in /  1030.4 hPa Calm   1.0 mph /  1.6 km/h 50 % 0.00 in /  0 mm
18:58 37.6 °F /  3.1 °C 21.0 °F /  -6.1 °C 30.44 in /  1030.7 hPa Calm   1.0 mph /  1.6 km/h 51 % 0.00 in /  0 mm
19:03 37.8 °F /  3.2 °C 21.2 °F /  -6 °C 30.44 in /  1030.7 hPa Calm   1.0 mph /  1.6 km/h 51 % 0.00 in /  0 mm
19:09 37.8 °F /  3.2 °C 21.2 °F /  -6 °C 30.44 in /  1030.7 hPa ESE 1.0 mph /  1.6 km/h 1.0 mph /  1.6 km/h 51 % 0.00 in /  0 mm
19:14 37.8 °F /  3.2 °C 21.7 °F /  -5.7 °C 30.44 in /  1030.7 hPa Calm   2.0 mph /  3.2 km/h 52 % 0.00 in /  0 mm
19:19 37.9 °F /  3.3 °C 22.3 °F /  -5.4 °C 30.44 in /  1030.7 hPa East 1.0 mph /  1.6 km/h 2.0 mph /  3.2 km/h 53 % 0.00 in /  0 mm
19:24 37.9 °F /  3.3 °C 21.4 °F /  -5.9 °C 30.44 in /  1030.7 hPa Calm   2.0 mph /  3.2 km/h 51 % 0.00 in /  0 mm
19:29 37.8 °F /  3.2 °C 21.7 °F /  -5.7 °C 30.43 in /  1030.4 hPa Calm   2.0 mph /  3.2 km/h 52 % 0.00 in /  0 mm
19:34 37.8 °F /  3.2 °C 21.7 °F /  -5.7 °C 30.43 in /  1030.4 hPa ESE 1.0 mph /  1.6 km/h 2.0 mph /  3.2 km/h 52 % 0.00 in /  0 mm
19:39 37.8 °F /  3.2 °C 21.7 °F /  -5.7 °C 30.43 in /  1030.4 hPa Calm   3.0 mph /  4.8 km/h 52 % 0.00 in /  0 mm
19:44 37.8 °F /  3.2 °C 22.1 °F /  -5.5 °C 30.43 in /  1030.4 hPa East 1.0 mph /  1.6 km/h 3.0 mph /  4.8 km/h 53 % 0.00 in /  0 mm
19:49 37.8 °F /  3.2 °C 22.1 °F /  -5.5 °C 30.43 in /  1030.4 hPa Calm   3.0 mph /  4.8 km/h 53 % 0.00 in /  0 mm
19:54 37.8 °F /  3.2 °C 22.1 °F /  -5.5 °C 30.43 in /  1030.4 hPa ENE 2.0 mph /  3.2 km/h 2.0 mph /  3.2 km/h 53 % 0.00 in /  0 mm
19:59 37.8 °F /  3.2 °C 22.1 °F /  -5.5 °C 30.43 in /  1030.4 hPa ENE 1.0 mph /  1.6 km/h 2.0 mph /  3.2 km/h 53 % 0.00 in /  0 mm
20:04 37.6 °F /  3.1 °C 21.9 °F /  -5.6 °C 30.43 in /  1030.4 hPa Calm   2.0 mph /  3.2 km/h 53 % 0.00 in /  0 mm
20:09 37.6 °F /  3.1 °C 21.9 °F /  -5.6 °C 30.43 in /  1030.4 hPa Calm   2.0 mph /  3.2 km/h 53 % 0.00 in /  0 mm
20:14 37.6 °F /  3.1 °C 21.9 °F /  -5.6 °C 30.43 in /  1030.4 hPa Calm   2.0 mph /  3.2 km/h 53 % 0.00 in /  0 mm
20:19 37.6 °F /  3.1 °C 21.9 °F /  -5.6 °C 30.43 in /  1030.4 hPa Calm   2.0 mph /  3.2 km/h 53 % 0.00 in /  0 mm
20:24 37.4 °F /  3 °C 22.3 °F /  -5.4 °C 30.43 in /  1030.4 hPa Calm   2.0 mph /  3.2 km/h 54 % 0.00 in /  0 mm
20:29 37.4 °F /  3 °C 22.3 °F /  -5.4 °C 30.43 in /  1030.4 hPa Calm   1.0 mph /  1.6 km/h 54 % 0.00 in /  0 mm
20:34 37.2 °F /  2.9 °C 22.1 °F /  -5.5 °C 30.43 in /  1030.4 hPa SE 1.0 mph /  1.6 km/h 3.0 mph /  4.8 km/h 54 % 0.00 in /  0 mm
20:39 37.2 °F /  2.9 °C 22.1 °F /  -5.5 °C 30.43 in /  1030.4 hPa Calm   3.0 mph /  4.8 km/h 54 % 0.00 in /  0 mm
20:44 37.2 °F /  2.9 °C 22.1 °F /  -5.5 °C 30.43 in /  1030.4 hPa Calm   3.0 mph /  4.8 km/h 54 % 0.00 in /  0 mm
20:49 37.2 °F /  2.9 °C 22.1 °F /  -5.5 °C 30.43 in /  1030.4 hPa Calm   2.0 mph /  3.2 km/h 54 % 0.00 in /  0 mm
20:54 37.2 °F /  2.9 °C 22.1 °F /  -5.5 °C 30.43 in /  1030.4 hPa Calm   1.0 mph /  1.6 km/h 54 % 0.00 in /  0 mm
20:59 37.2 °F /  2.9 °C 22.5 °F /  -5.3 °C 30.43 in /  1030.4 hPa NNE 1.0 mph /  1.6 km/h 1.0 mph /  1.6 km/h 55 % 0.00 in /  0 mm
21:04 37.2 °F /  2.9 °C 22.1 °F /  -5.5 °C 30.43 in /  1030.4 hPa ENE 1.0 mph /  1.6 km/h 2.0 mph /  3.2 km/h 54 % 0.00 in /  0 mm
21:09 37.2 °F /  2.9 °C 22.1 °F /  -5.5 °C 30.43 in /  1030.4 hPa Calm   2.0 mph /  3.2 km/h 54 % 0.00 in /  0 mm
21:14 37.2 °F /  2.9 °C 22.1 °F /  -5.5 °C 30.43 in /  1030.4 hPa Calm   2.0 mph /  3.2 km/h 54 % 0.00 in /  0 mm
21:19 37.2 °F /  2.9 °C 22.1 °F /  -5.5 °C 30.43 in /  1030.4 hPa Calm   1.0 mph /  1.6 km/h 54 % 0.00 in /  0 mm
21:24 37.2 °F /  2.9 °C 22.1 °F /  -5.5 °C 30.43 in /  1030.4 hPa Calm   1.0 mph /  1.6 km/h 54 % 0.00 in /  0 mm
21:29 37.2 °F /  2.9 °C 21.7 °F /  -5.7 °C 30.43 in /  1030.4 hPa SE 1.0 mph /  1.6 km/h 1.0 mph /  1.6 km/h 53 % 0.00 in /  0 mm
21:34 37.2 °F /  2.9 °C 21.2 °F /  -6 °C 30.43 in /  1030.4 hPa Calm   2.0 mph /  3.2 km/h 52 % 0.00 in /  0 mm
21:39 37.2 °F /  2.9 °C 21.2 °F /  -6 °C 30.43 in /  1030.4 hPa SSE 1.0 mph /  1.6 km/h 2.0 mph /  3.2 km/h 52 % 0.00 in /  0 mm
21:44 37.2 °F /  2.9 °C 21.2 °F /  -6 °C 30.43 in /  1030.4 hPa SE 1.0 mph /  1.6 km/h 2.0 mph /  3.2 km/h 52 % 0.00 in /  0 mm
21:50 37.2 °F /  2.9 °C 20.3 °F /  -6.5 °C 30.43 in /  1030.4 hPa Calm   2.0 mph /  3.2 km/h 50 % 0.00 in /  0 mm
21:55 37.2 °F /  2.9 °C 20.8 °F /  -6.2 °C 30.43 in /  1030.4 hPa Calm   2.0 mph /  3.2 km/h 51 % 0.00 in /  0 mm
21:59 37.2 °F /  2.9 °C 20.8 °F /  -6.2 °C 30.43 in /  1030.4 hPa Calm   2.0 mph /  3.2 km/h 51 % 0.00 in /  0 mm
22:05 37.2 °F /  2.9 °C 20.8 °F /  -6.2 °C 30.44 in /  1030.7 hPa Calm   2.0 mph /  3.2 km/h 51 % 0.00 in /  0 mm
22:10 37.4 °F /  3 °C 21.4 °F /  -5.9 °C 30.43 in /  1030.4 hPa Calm   1.0 mph /  1.6 km/h 52 % 0.00 in /  0 mm
22:15 37.4 °F /  3 °C 21.9 °F /  -5.6 °C 30.43 in /  1030.4 hPa Calm   1.0 mph /  1.6 km/h 53 % 0.00 in /  0 mm
22:20 37.4 °F /  3 °C 21.4 °F /  -5.9 °C 30.43 in /  1030.4 hPa SSW 1.0 mph /  1.6 km/h 1.0 mph /  1.6 km/h 52 % 0.00 in /  0 mm
22:25 37.2 °F /  2.9 °C 21.7 °F /  -5.7 °C 30.43 in /  1030.4 hPa SW 1.0 mph /  1.6 km/h 2.0 mph /  3.2 km/h 53 % 0.00 in /  0 mm
22:30 37.2 °F /  2.9 °C 21.7 °F /  -5.7 °C 30.42 in /  1030 hPa Calm   2.0 mph /  3.2 km/h 53 % 0.00 in /  0 mm
22:35 37.0 °F /  2.8 °C 22.5 °F /  -5.3 °C 30.42 in /  1030 hPa SSW 1.0 mph /  1.6 km/h 2.0 mph /  3.2 km/h 55 % 0.00 in /  0 mm
22:40 37.0 °F /  2.8 °C 22.5 °F /  -5.3 °C 30.42 in /  1030 hPa SSE 2.0 mph /  3.2 km/h 2.0 mph /  3.2 km/h 55 % 0.00 in /  0 mm
22:45 37.0 °F /  2.8 °C 22.5 °F /  -5.3 °C 30.42 in /  1030 hPa Calm   2.0 mph /  3.2 km/h 55 % 0.00 in /  0 mm
22:50 37.0 °F /  2.8 °C 22.5 °F /  -5.3 °C 30.41 in /  1029.7 hPa Calm   2.0 mph /  3.2 km/h 55 % 0.00 in /  0 mm
22:55 37.2 °F /  2.9 °C 23.0 °F /  -5 °C 30.41 in /  1029.7 hPa Calm   2.0 mph /  3.2 km/h 56 % 0.00 in /  0 mm
23:00 37.2 °F /  2.9 °C 23.0 °F /  -5 °C 30.41 in /  1029.7 hPa Calm   2.0 mph /  3.2 km/h 56 % 0.00 in /  0 mm
23:05 37.2 °F /  2.9 °C 23.0 °F /  -5 °C 30.41 in /  1029.7 hPa SE 1.0 mph /  1.6 km/h 2.0 mph /  3.2 km/h 56 % 0.00 in /  0 mm
23:10 37.6 °F /  3.1 °C 23.4 °F /  -4.8 °C 30.41 in /  1029.7 hPa SE 1.0 mph /  1.6 km/h 2.0 mph /  3.2 km/h 56 % 0.00 in /  0 mm
23:15 37.6 °F /  3.1 °C 22.8 °F /  -5.1 °C 30.41 in /  1029.7 hPa SSW 2.0 mph /  3.2 km/h 2.0 mph /  3.2 km/h 55 % 0.00 in /  0 mm
23:20 37.6 °F /  3.1 °C 22.8 °F /  -5.1 °C 30.41 in /  1029.7 hPa Calm   3.0 mph /  4.8 km/h 55 % 0.00 in /  0 mm
23:25 37.6 °F /  3.1 °C 22.8 °F /  -5.1 °C 30.41 in /  1029.7 hPa SE 2.0 mph /  3.2 km/h 3.0 mph /  4.8 km/h 55 % 0.00 in /  0 mm
23:30 37.6 °F /  3.1 °C 22.8 °F /  -5.1 °C 30.41 in /  1029.7 hPa SSE 3.0 mph /  4.8 km/h 3.0 mph /  4.8 km/h 55 % 0.00 in /  0 mm
23:35 37.8 °F /  3.2 °C 23.5 °F /  -4.7 °C 30.40 in /  1029.3 hPa ESE 1.0 mph /  1.6 km/h 5.0 mph /  8 km/h 56 % 0.00 in /  0 mm
23:40 37.8 °F /  3.2 °C 23.5 °F /  -4.7 °C 30.40 in /  1029.3 hPa SSE 3.0 mph /  4.8 km/h 5.0 mph /  8 km/h 56 % 0.00 in /  0 mm
23:45 37.8 °F /  3.2 °C 23.0 °F /  -5 °C 30.40 in /  1029.3 hPa East 3.0 mph /  4.8 km/h 5.0 mph /  8 km/h 55 % 0.00 in /  0 mm
23:50 37.8 °F /  3.2 °C 23.5 °F /  -4.7 °C 30.40 in /  1029.3 hPa SE 2.0 mph /  3.2 km/h 5.0 mph /  8 km/h 56 % 0.00 in /  0 mm
23:55 37.8 °F /  3.2 °C 23.5 °F /  -4.7 °C 30.40 in /  1029.3 hPa SSE 2.0 mph /  3.2 km/h 5.0 mph /  8 km/h 56 % 0.00 in /  0 mm
Spring, Texas: Villages of Bridgestone
Compliments of Weather Underground - 3.25 mb

Script developed by  Jim McMurry - jmcmurry@mwt.net Adapted for the template by  Wim van der Kuil - Leuven-Template.eu

You find our weather info also at:

UK Metoffice

WeatherCloud

Weather Underground

Mid-South Weather Network

AWEKAS

Citizen Weather Observer Program (CWOP)

HAMweather, WeatherForYou, PWS Weather

Equipment we use:

Weather-station
Davis Vantage Vue

Weather-program
Meteohub

Weather-server
Debian 7.9 x86 (Guest)

Provider
DreamHost

Davis Vantage Vue

Meteohub

Debian 7.9 x86 (Guest)

DreamHost